Time;durP1;ratioP1;P1;durP2;ratioP2;P2;SDS_P1;SDS_P2;PMS_P1;PMS_P2;Temp;Humidity;BMP_temperature;BMP_pressure;BME280_temperature;BME280_humidity;BME280_pressure;Samples;Min_cycle;Max_cycle;Signal;HPM_P1;HPM_P2
2022/11/11 00:01:21;;;;;;;34.08;23.25;;;;;;;11.29;67.88;95762.16;4142507;28;20046;-76
2022/11/11 00:03:22;;;;;;;33.65;22.65;;;;;;;11.24;68.27;95759.13;4145405;28;20133;-76
2022/11/11 00:05:26;;;;;;;31.38;21.77;;;;;;;11.28;68.01;95763.97;4144883;28;20053;-77
2022/11/11 00:07:28;;;;;;;35.78;22.92;;;;;;;11.34;67.75;95759.97;4144418;28;20107;-76
2022/11/11 00:09:30;;;;;;;34.08;23.17;;;;;;;11.31;67.77;95760.22;4143368;28;20111;-76
2022/11/11 00:11:31;;;;;;;32.63;23.60;;;;;;;11.32;67.48;95759.28;4141459;28;20041;-75
2022/11/11 00:13:34;;;;;;;31.38;22.65;;;;;;;11.27;67.62;95762.31;4144549;28;20134;-78
2022/11/11 00:15:40;;;;;;;35.22;22.48;;;;;;;11.32;67.85;95758.47;4142269;28;20092;-73
2022/11/11 00:27:06;;;;;;;34.15;23.70;;;;;;;11.35;67.93;95764.25;4137725;28;20104;-73
2022/11/11 00:29:08;;;;;;;36.72;24.77;;;;;;;11.36;67.61;95778.22;4120095;28;20051;-71
2022/11/11 00:31:12;;;;;;;34.45;23.38;;;;;;;11.37;67.67;95767.56;4140990;28;20057;-73
2022/11/11 00:33:14;;;;;;;36.85;24.15;;;;;;;11.36;67.86;95776.41;4142440;28;20655;-74
2022/11/11 00:37:36;;;;;;;39.47;24.10;;;;;;;11.33;68.10;95775.84;4143470;28;20084;-74
2022/11/11 00:39:38;;;;;;;33.40;24.10;;;;;;;11.30;68.33;95778.75;4143730;28;20136;-73
2022/11/11 00:41:39;;;;;;;34.58;23.38;;;;;;;11.32;68.12;95775.03;4143889;28;20060;-73
2022/11/11 00:43:42;;;;;;;35.10;23.92;;;;;;;11.32;67.94;95772.41;4142045;28;20449;-75
2022/11/11 00:45:44;;;;;;;40.63;24.73;;;;;;;11.29;67.76;95770.03;4141591;28;20124;-74
2022/11/11 00:52:35;;;;;;;34.00;22.92;;;;;;;11.18;68.55;95767.53;4132191;28;20106;-73
2022/11/11 00:54:37;;;;;;;34.15;25.08;;;;;;;11.17;68.77;95766.72;4142126;28;20053;-72
2022/11/11 00:56:38;;;;;;;36.42;24.65;;;;;;;11.22;68.72;95768.94;4142779;28;20058;-73
2022/11/11 00:58:40;;;;;;;36.90;24.38;;;;;;;11.25;68.60;95766.06;4143086;28;20131;-75
2022/11/11 01:00:42;;;;;;;33.25;23.65;;;;;;;11.27;68.68;95761.47;4133454;28;20073;-76
2022/11/11 01:02:44;;;;;;;35.95;24.23;;;;;;;11.32;68.43;95769.78;4143259;28;20046;-76
2022/11/11 01:04:46;;;;;;;35.83;24.23;;;;;;;11.26;68.45;95758.03;4143777;28;20053;-74
2022/11/11 01:06:48;;;;;;;36.42;23.90;;;;;;;11.30;68.28;95761.22;4133560;28;20052;-73
2022/11/11 01:08:49;;;;;;;37.70;24.85;;;;;;;11.32;68.21;95763.72;4142662;28;20515;-76
2022/11/11 01:10:51;;;;;;;37.42;24.35;;;;;;;11.30;67.99;95760.38;4143990;28;20120;-76
2022/11/11 01:13:10;;;;;;;36.97;24.80;;;;;;;11.26;68.45;95754.59;4134318;28;20641;-74
2022/11/11 01:15:13;;;;;;;35.85;24.73;;;;;;;11.26;69.04;95755.41;4135397;28;20089;-74
2022/11/11 01:17:14;;;;;;;35.35;24.92;;;;;;;11.18;68.62;95757.88;4143446;28;20173;-73
2022/11/11 01:19:16;;;;;;;35.92;24.55;;;;;;;11.20;68.68;95758.56;4143863;28;20058;-77
2022/11/11 01:21:20;;;;;;;32.40;23.60;;;;;;;11.16;68.81;95765.06;4145082;28;20129;-76
2022/11/11 01:23:22;;;;;;;36.38;24.05;;;;;;;11.21;68.64;95759.41;4144579;28;20050;-76
2022/11/11 01:25:24;;;;;;;34.50;24.08;;;;;;;11.23;68.75;95763.56;4144980;28;20467;-77
2022/11/11 01:27:25;;;;;;;36.80;25.23;;;;;;;11.20;68.37;95768.25;4126977;28;20061;-78
2022/11/11 01:29:27;;;;;;;35.38;24.63;;;;;;;11.21;69.03;95762.03;4142510;28;20077;-74
2022/11/11 01:31:29;;;;;;;33.38;24.92;;;;;;;11.18;68.68;95759.69;4143748;28;20076;-75
2022/11/11 01:33:31;;;;;;;33.13;25.88;;;;;;;11.14;68.58;95759.13;4146179;28;20081;-75
2022/11/11 01:35:37;;;;;;;36.92;24.98;;;;;;;11.13;68.95;95761.88;4145598;28;20424;-75
2022/11/11 01:37:39;;;;;;;35.90;25.77;;;;;;;11.08;69.26;95759.69;4131836;28;20041;-72
2022/11/11 01:39:41;;;;;;;41.05;26.10;;;;;;;11.12;69.20;95749.72;4144229;28;20050;-73
2022/11/11 01:41:42;;;;;;;36.70;27.30;;;;;;;11.09;69.26;95752.63;4143426;28;20060;-75
2022/11/11 01:43:44;;;;;;;41.75;26.08;;;;;;;11.09;69.16;95752.63;4133807;28;20092;-74
2022/11/11 01:45:54;;;;;;;39.83;27.20;;;;;;;11.09;69.16;95763.13;4144554;28;20097;-72
2022/11/11 01:50:26;;;;;;;44.15;28.45;;;;;;;11.09;69.31;95765.75;4149662;28;20104;-75
2022/11/11 01:52:35;;;;;;;38.38;27.80;;;;;;;11.12;69.29;95761.06;4148629;28;20514;-74
2022/11/11 01:54:41;;;;;;;39.95;27.00;;;;;;;11.07;69.35;95769.31;4146548;28;20220;-74
2022/11/11 01:56:46;;;;;;;37.90;26.25;;;;;;;11.07;69.65;95765.88;4145242;28;20049;-72
2022/11/11 01:58:49;;;;;;;39.05;26.75;;;;;;;11.01;69.52;95767.25;4142788;28;20160;-72
2022/11/11 02:00:50;;;;;;;39.90;28.75;;;;;;;11.04;69.34;95776.66;4135841;28;20455;-72
2022/11/11 02:03:05;;;;;;;39.33;27.80;;;;;;;11.02;69.66;95779.41;4144569;28;20037;-74
2022/11/11 02:07:31;;;;;;;41.47;29.67;;;;;;;11.01;69.81;95774.28;4144790;28;20078;-75
2022/11/11 02:09:33;;;;;;;43.20;30.15;;;;;;;11.00;69.77;95773.47;4144292;28;20714;-74
2022/11/11 02:16:16;;;;;;;43.58;30.27;;;;;;;10.98;70.20;95780.63;4143949;28;20141;-73
2022/11/11 02:18:18;;;;;;;41.90;29.15;;;;;;;11.01;69.82;95783.00;4132097;28;20060;-72
2022/11/11 02:20:23;;;;;;;41.83;29.17;;;;;;;10.99;69.92;95779.69;4144462;28;20617;-73
2022/11/11 02:22:38;;;;;;;45.40;28.95;;;;;;;10.94;70.18;95784.47;4141934;28;20069;-72
2022/11/11 02:24:41;;;;;;;42.83;31.00;;;;;;;10.80;70.47;95779.63;4134458;28;20394;-74
2022/11/11 02:26:43;;;;;;;44.88;30.17;;;;;;;10.88;70.25;95777.16;4143963;28;20057;-73
2022/11/11 02:28:45;;;;;;;47.63;31.75;;;;;;;10.87;70.51;95780.75;4144505;28;20132;-74
2022/11/11 02:30:47;;;;;;;46.13;30.70;;;;;;;10.84;70.30;95775.75;4144190;28;20707;-74
2022/11/11 02:32:50;;;;;;;45.97;29.83;;;;;;;10.86;70.81;95777.31;4140100;28;20093;-73
2022/11/11 02:34:52;;;;;;;;;;;;;;;10.88;70.30;95781.56;4144445;28;20401;-74
2022/11/11 02:36:54;;;;;;;42.97;30.63;;;;;;;10.90;70.16;95780.47;4145809;28;19968;-71
2022/11/11 02:38:56;;;;;;;45.03;30.83;;;;;;;10.93;70.07;95779.41;4145434;28;20054;-71
2022/11/11 02:43:18;;;;;;;41.33;29.23;;;;;;;10.86;70.14;95779.94;4145751;28;20057;-73
2022/11/11 02:45:20;;;;;;;42.72;28.48;;;;;;;10.77;70.71;95772.03;4144812;28;20151;-74
2022/11/11 02:47:22;;;;;;;44.58;29.70;;;;;;;10.72;70.61;95779.47;4132312;28;20077;-72
2022/11/11 02:49:24;;;;;;;40.30;28.00;;;;;;;10.75;70.80;95771.31;4140931;28;20056;-74
2022/11/11 02:51:25;;;;;;;41.63;27.85;;;;;;;10.80;71.01;95779.63;4145529;28;20049;-74
2022/11/11 02:53:27;;;;;;;41.53;28.00;;;;;;;10.79;70.49;95777.97;4143332;28;20096;-75
2022/11/11 02:55:30;;;;;;;40.22;26.33;;;;;;;10.80;70.89;95775.22;4144244;28;20058;-72
2022/11/11 02:57:32;;;;;;;37.88;27.95;;;;;;;10.84;70.66;95775.75;4136932;28;20468;-73
2022/11/11 02:59:35;;;;;;;43.20;27.63;;;;;;;10.91;70.90;95779.53;4143839;28;20054;-73
2022/11/11 03:01:37;;;;;;;36.65;26.70;;;;;;;10.92;70.79;95775.91;4143440;28;20050;-72
2022/11/11 03:03:39;;;;;;;39.50;27.42;;;;;;;11.01;70.31;95780.38;4144711;28;20050;-72
2022/11/11 03:05:41;;;;;;;38.95;27.80;;;;;;;11.02;70.58;95779.41;4145194;28;20208;-76
2022/11/11 03:07:43;;;;;;;40.78;28.02;;;;;;;11.02;70.17;95787.25;4144071;28;20088;-74
2022/11/11 03:09:45;;;;;;;38.22;27.42;;;;;;;11.05;70.18;95784.34;4143399;28;20054;-75
2022/11/11 03:11:47;;;;;;;35.40;24.48;;;;;;;11.11;70.64;95787.41;4140020;28;20420;-76
2022/11/11 03:13:49;;;;;;;35.55;25.33;;;;;;;11.11;70.51;95783.00;4144091;28;20495;-75
2022/11/11 03:15:50;;;;;;;35.78;27.10;;;;;;;11.14;70.36;95779.28;4145321;28;20109;-74
2022/11/11 03:17:52;;;;;;;38.70;28.95;;;;;;;11.12;70.66;95781.19;4144775;28;20046;-75
2022/11/11 03:21:03;;;;;;;40.33;27.67;;;;;;;11.18;71.15;95783.28;4145651;28;20476;-76
2022/11/11 03:22:15;;;;;;;41.17;29.02;;;;;;;11.17;71.02;95779.84;4145200;28;20050;-76
2022/11/11 03:26:57;;;;;;;40.92;28.17;;;;;;;11.27;71.13;95785.94;4146124;28;20172;-73
2022/11/11 03:28:59;;;;;;;41.47;29.50;;;;;;;11.30;70.70;95784.00;4148767;28;20057;-75
2022/11/11 03:31:01;;;;;;;41.58;27.95;;;;;;;11.33;70.38;95774.03;4143461;28;20092;-76
2022/11/11 03:33:05;;;;;;;39.33;27.98;;;;;;;11.37;70.39;95767.56;4144938;28;20062;-75
2022/11/11 03:35:07;;;;;;;36.53;26.98;;;;;;;11.40;70.17;95769.06;4143903;28;20072;-74
2022/11/11 03:39:30;;;;;;;34.53;24.95;;;;;;;11.42;70.20;95769.75;4143972;28;20095;-76
2022/11/11 03:41:32;;;;;;;35.15;26.15;;;;;;;11.43;70.43;95768.81;4145089;28;20053;-75
2022/11/11 03:43:37;;;;;;;36.05;27.33;;;;;;;11.42;70.58;95770.63;4136398;28;20054;-76
2022/11/11 03:45:39;;;;;;;38.53;26.45;;;;;;;11.42;70.96;95769.75;4131084;28;20110;-76
2022/11/11 03:47:40;;;;;;;37.70;28.17;;;;;;;11.45;70.82;95778.19;4145058;28;20125;-76
2022/11/11 03:49:44;;;;;;;35.33;25.92;;;;;;;11.43;70.95;95777.50;4144965;28;20110;-78
2022/11/11 03:51:46;;;;;;;37.15;26.70;;;;;;;11.43;71.39;95768.81;4145160;28;20555;-72
2022/11/11 03:53:48;;;;;;;38.58;27.08;;;;;;;11.50;71.17;95775.16;4142867;28;20084;-71
2022/11/11 03:55:50;;;;;;;34.95;25.80;;;;;;;11.48;70.97;95775.28;4144494;28;20168;-74
2022/11/11 03:57:52;;;;;;;37.67;25.98;;;;;;;11.44;71.92;95779.19;4144162;28;20046;-75
2022/11/11 03:59:54;;;;;;;42.97;28.15;;;;;;;11.45;72.15;95775.56;4145127;28;20100;-76
2022/11/11 04:11:23;;;;;;;44.63;29.50;;;;;;;11.52;72.78;95777.66;4141002;28;21947;-72
2022/11/11 04:16:05;;;;;;;44.55;30.08;;;;;;;11.48;73.13;95771.84;4150085;28;20054;-71
2022/11/11 04:18:07;;;;;;;44.88;30.02;;;;;;;11.55;72.95;95780.84;4142889;28;20057;-75
2022/11/11 04:22:29;;;;;;;43.95;29.23;;;;;;;11.54;72.41;95781.78;4145599;28;20132;-77
2022/11/11 04:26:56;;;;;;;40.15;28.27;;;;;;;11.61;72.73;95784.69;4138049;28;20050;-75
2022/11/11 04:31:18;;;;;;;38.30;28.10;;;;;;;11.62;72.69;95784.56;4143096;28;20054;-75
2022/11/11 04:33:20;;;;;;;38.97;28.15;;;;;;;11.55;72.83;95786.09;4127482;28;20297;-74
2022/11/11 04:35:22;;;;;;;40.60;28.90;;;;;;;11.55;72.60;95796.59;4141887;28;20152;-74
2022/11/11 04:37:27;;;;;;;41.95;28.10;;;;;;;11.48;72.98;95791.03;4140420;28;20093;-72
2022/11/11 04:41:49;;;;;;;39.13;27.92;;;;;;;11.52;72.82;95786.34;4140669;28;20065;-72
2022/11/11 04:46:30;;;;;;;40.40;28.15;;;;;;;11.55;72.61;95798.34;4132713;28;20504;-72
2022/11/11 04:48:32;;;;;;;45.08;30.20;;;;;;;11.53;72.82;95792.41;4139188;28;20562;-73
2022/11/11 04:50:36;;;;;;;44.17;28.42;;;;;;;11.52;72.57;95793.41;4140503;28;20415;-73
2022/11/11 04:52:38;;;;;;;42.20;29.52;;;;;;;11.56;72.83;95795.59;4143864;28;20050;-72
2022/11/11 04:56:46;;;;;;;38.10;27.00;;;;;;;11.55;72.65;95798.34;4143647;28;20419;-73
2022/11/11 04:57:02;;;;;;;39.08;27.83;;;;;;;11.56;72.68;95797.41;4144062;28;20077;-73
2022/11/11 04:59:15;;;;;;;37.03;26.85;;;;;;;11.59;72.65;95799.75;4144508;28;20511;-73
2022/11/11 05:03:14;;;;;;;35.13;25.95;;;;;;;11.53;72.41;95798.50;4142935;28;20088;-71
2022/11/11 05:03:39;;;;;;;35.65;24.90;;;;;;;11.53;72.45;95795.88;4143889;28;20052;-74
2022/11/11 05:10:27;;;;;;;38.40;24.85;;;;;;;11.55;72.22;95801.84;4134740;28;20145;-73
2022/11/11 05:12:28;;;;;;;34.75;24.92;;;;;;;11.54;72.49;95804.59;4142860;28;20326;-72
2022/11/11 05:21:34;;;;;;;31.75;22.25;;;;;;;11.38;72.39;95798.09;4145489;28;20253;-73
2022/11/11 05:25:56;;;;;;;32.60;23.48;;;;;;;11.36;72.69;95805.28;4146526;28;20060;-74
2022/11/11 05:27:58;;;;;;;33.05;23.20;;;;;;;11.39;72.44;95812.03;4134175;28;20049;-73
2022/11/11 05:29:59;;;;;;;36.10;23.17;;;;;;;11.02;73.52;95810.03;4138555;28;20130;-71
2022/11/11 05:32:01;;;;;;;35.88;25.10;;;;;;;10.78;74.79;95813.84;4139045;28;20045;-75
2022/11/11 05:34:03;;;;;;;36.95;23.13;;;;;;;10.58;75.97;95818.19;4146331;28;20104;-73
2022/11/11 05:36:05;;;;;;;36.67;26.00;;;;;;;10.32;76.73;95819.56;4146911;28;20056;-75
2022/11/11 05:38:19;;;;;;;38.97;25.38;;;;;;;10.17;77.65;95824.25;4129854;28;20046;-78
2022/11/11 05:40:20;;;;;;;33.97;24.95;;;;;;;10.11;77.65;95841.34;4144564;28;20119;-77
2022/11/11 05:42:22;;;;;;;39.28;25.55;;;;;;;10.03;78.42;95826.25;4145817;28;20073;-77
2022/11/11 05:44:24;;;;;;;39.00;27.35;;;;;;;9.95;79.14;95835.69;4129717;28;20133;-76
2022/11/11 05:46:25;;;;;;;39.63;26.90;;;;;;;9.97;79.28;95833.78;4148344;28;20145;-80
2022/11/11 05:48:27;;;;;;;36.60;26.02;;;;;;;9.86;79.28;95828.63;4147689;28;20081;-77
2022/11/11 05:50:29;;;;;;;40.30;28.23;;;;;;;10.08;78.79;95822.41;4147425;28;20096;-74
2022/11/11 05:52:30;;;;;;;37.88;27.08;;;;;;;10.29;78.47;95838.13;4148417;28;20042;-78
2022/11/11 05:54:32;;;;;;;38.75;27.30;;;;;;;10.48;77.89;95832.19;4152364;28;20393;-75
2022/11/11 05:56:34;;;;;;;38.40;27.33;;;;;;;10.66;76.57;95838.47;4151742;28;20054;-78
2022/11/11 05:58:36;;;;;;;39.17;26.25;;;;;;;10.78;75.88;95845.28;4147228;28;20500;-77
2022/11/11 06:00:37;;;;;;;40.65;27.55;;;;;;;10.89;75.63;95843.53;4146378;28;20100;-76
2022/11/11 06:02:39;;;;;;;36.17;26.83;;;;;;;10.85;76.08;95856.06;4146155;28;20042;-78
2022/11/11 06:04:41;;;;;;;38.30;25.70;;;;;;;10.95;75.51;95845.59;4146387;28;20115;-77
2022/11/11 06:06:43;;;;;;;40.95;27.35;;;;;;;11.08;75.42;95851.47;4133604;28;20078;-79
2022/11/11 06:08:45;;;;;;;43.50;27.50;;;;;;;10.99;75.02;95865.34;4128465;28;20050;-77
2022/11/11 06:10:46;;;;;;;38.78;26.95;;;;;;;11.10;74.70;95857.41;4128636;28;20116;-76
2022/11/11 06:13:09;;;;;;;39.20;27.45;;;;;;;10.78;75.85;95863.63;4142865;28;20049;-78
2022/11/11 06:15:10;;;;;;;37.38;27.73;;;;;;;10.63;76.66;95863.16;4146496;28;20109;-75
2022/11/11 06:17:12;;;;;;;43.90;30.15;;;;;;;10.65;76.95;95874.34;4144347;28;20092;-74
2022/11/11 06:19:14;;;;;;;39.75;29.95;;;;;;;10.60;76.98;95880.91;4132363;28;20145;-73
2022/11/11 06:21:16;;;;;;;40.72;29.00;;;;;;;10.41;77.60;95886.88;4145193;28;20057;-73
2022/11/11 06:23:18;;;;;;;39.78;28.08;;;;;;;10.33;77.63;95889.31;4144402;28;20176;-75
2022/11/11 06:27:39;;;;;;;44.40;29.60;;;;;;;10.45;77.70;95881.28;4145967;28;20053;-76
2022/11/11 06:29:41;;;;;;;46.22;30.63;;;;;;;10.43;77.38;95890.19;4146239;28;20720;-74
2022/11/11 06:31:44;;;;;;;43.20;31.08;;;;;;;10.35;77.48;95890.03;4144838;28;20659;-76
2022/11/11 06:33:46;;;;;;;46.88;30.60;;;;;;;10.52;77.55;95892.06;4145320;28;20440;-74
2022/11/11 06:35:48;;;;;;;43.97;30.42;;;;;;;10.69;76.71;95898.50;4145027;28;20149;-74
2022/11/11 06:37:49;;;;;;;44.13;29.75;;;;;;;10.82;76.65;95900.91;4145970;28;20117;-74
2022/11/11 06:39:51;;;;;;;41.67;29.20;;;;;;;10.87;76.02;95903.97;4145694;28;20135;-74
2022/11/11 06:41:52;;;;;;;42.97;28.58;;;;;;;10.85;75.69;95909.31;4131919;28;20136;-73
2022/11/11 06:43:54;;;;;;;40.03;27.20;;;;;;;10.89;75.47;95907.28;4131535;28;20538;-74
2022/11/11 06:45:56;;;;;;;37.50;26.70;;;;;;;10.96;75.43;95911.03;4133121;28;20380;-74
2022/11/11 06:47:58;;;;;;;42.72;24.67;;;;;;;10.96;75.15;95916.28;4144847;28;20529;-74
2022/11/11 06:50:00;;;;;;;36.88;25.80;;;;;;;10.81;75.78;95910.53;4145342;28;20088;-73
2022/11/11 06:52:01;;;;;;;40.60;26.73;;;;;;;10.78;75.48;95920.47;4145966;28;20412;-74
2022/11/11 06:54:03;;;;;;;36.38;25.52;;;;;;;10.73;76.58;95912.16;4145059;28;20111;-74
2022/11/11 06:56:06;;;;;;;37.55;25.65;;;;;;;10.79;76.00;95916.88;4145233;28;20504;-74
2022/11/11 06:58:09;;;;;;;34.50;24.70;;;;;;;10.92;75.69;95917.50;4144044;28;20129;-71
2022/11/11 07:00:11;;;;;;;35.45;24.60;;;;;;;10.92;75.43;95912.25;4141825;28;20065;-72
2022/11/11 07:02:13;;;;;;;35.63;23.85;;;;;;;11.04;75.17;95918.25;4142682;28;20129;-74
2022/11/11 07:04:15;;;;;;;39.72;25.95;;;;;;;11.02;75.36;95913.13;4143782;28;20046;-75
2022/11/11 07:06:16;;;;;;;36.40;23.83;;;;;;;11.06;75.20;95916.31;4145507;28;20617;-74
2022/11/11 07:08:18;;;;;;;39.15;26.05;;;;;;;10.99;75.26;95921.28;4144436;28;20062;-73
2022/11/11 07:10:20;;;;;;;33.00;23.15;;;;;;;10.96;75.45;95918.88;4134583;28;20048;-74
2022/11/11 07:12:22;;;;;;;32.08;21.15;;;;;;;10.85;75.17;95924.22;4145867;28;20078;-76
2022/11/11 07:14:24;;;;;;;34.28;21.45;;;;;;;10.55;76.25;95923.22;4146454;28;20558;-77
2022/11/11 07:16:26;;;;;;;30.58;21.42;;;;;;;10.58;76.47;95927.38;4143726;28;20427;-78
2022/11/11 07:18:27;;;;;;;32.63;22.45;;;;;;;10.57;76.57;95934.41;4134852;28;20658;-76
2022/11/11 07:20:29;;;;;;;31.20;22.48;;;;;;;10.64;76.01;95927.69;4145919;28;20054;-79
2022/11/11 07:22:35;;;;;;;34.05;22.95;;;;;;;10.72;75.84;95924.44;4144575;28;20081;-78
2022/11/11 07:24:38;;;;;;;29.10;21.48;;;;;;;10.86;75.63;95936.34;4144372;28;20081;-78
2022/11/11 07:26:41;;;;;;;29.73;20.08;;;;;;;10.93;74.91;95929.66;4127601;28;20173;-76
2022/11/11 07:28:42;;;;;;;29.23;19.95;;;;;;;10.87;75.02;95932.78;4145550;28;20085;-76
2022/11/11 07:30:44;;;;;;;33.17;22.77;;;;;;;10.86;75.11;95957.34;4144931;28;20518;-77
2022/11/11 07:32:47;;;;;;;29.35;20.35;;;;;;;10.92;74.95;95943.72;4143329;28;20049;-79
2022/11/11 07:34:52;;;;;;;29.73;20.17;;;;;;;10.94;74.59;95946.22;4145233;28;20046;-78
2022/11/11 07:36:54;;;;;;;33.00;21.35;;;;;;;11.03;74.35;95942.78;4145878;28;20516;-79
2022/11/11 07:38:57;;;;;;;29.83;20.88;;;;;;;11.09;74.38;95949.31;4143082;28;20054;-74
2022/11/11 07:40:59;;;;;;;31.25;19.50;;;;;;;11.16;73.74;95948.63;4144980;28;20049;-76
2022/11/11 07:43:01;;;;;;;31.98;20.88;;;;;;;11.24;73.66;95950.63;4144662;28;20046;-73
2022/11/11 07:45:03;;;;;;;30.48;20.40;;;;;;;11.26;73.47;95953.94;4143376;28;20058;-75
2022/11/11 07:47:05;;;;;;;31.10;20.05;;;;;;;11.22;73.33;95955.97;4136330;28;20088;-74
2022/11/11 07:49:06;;;;;;;31.02;21.20;;;;;;;11.25;73.48;95947.88;4144650;28;20472;-73
2022/11/11 07:51:08;;;;;;;34.38;21.58;;;;;;;11.32;73.22;95963.09;4144589;28;20104;-72
2022/11/11 07:53:10;;;;;;;30.33;20.27;;;;;;;11.26;73.34;95959.19;4143063;28;20100;-72
2022/11/11 07:55:11;;;;;;;28.45;18.80;;;;;;;11.26;72.93;95964.44;4144236;28;20181;-75
2022/11/11 07:57:13;;;;;;;27.40;18.77;;;;;;;11.13;73.53;95962.03;4141952;28;20081;-76
2022/11/11 07:59:15;;;;;;;31.52;20.98;;;;;;;11.16;73.95;95966.19;4139537;28;20058;-73
2022/11/11 08:01:17;;;;;;;30.15;20.38;;;;;;;11.05;73.91;95967.91;4143385;28;20046;-72
2022/11/11 08:03:19;;;;;;;31.13;20.27;;;;;;;11.15;73.59;95975.84;4144600;28;20136;-72
2022/11/11 08:05:20;;;;;;;32.05;20.48;;;;;;;11.21;73.55;95967.44;4144606;28;20054;-73
2022/11/11 08:07:45;;;;;;;30.95;19.08;;;;;;;11.17;73.19;95960.81;4141411;28;20050;-74
2022/11/11 08:09:47;;;;;;;30.73;18.67;;;;;;;10.93;74.30;95968.97;4141726;28;20156;-73
2022/11/11 08:14:09;;;;;;;27.20;19.58;;;;;;;10.99;73.43;95967.63;4143272;28;20726;-75
2022/11/11 08:16:13;;;;;;;27.55;19.50;;;;;;;11.06;73.42;95974.84;4143005;28;20046;-73
2022/11/11 08:18:15;;;;;;;24.85;17.95;;;;;;;11.07;73.18;95975.66;4126775;28;20046;-73
2022/11/11 08:20:17;;;;;;;26.98;18.08;;;;;;;11.14;73.09;95981.22;4142696;28;20077;-73
2022/11/11 08:22:18;;;;;;;30.15;18.50;;;;;;;11.13;72.72;95980.38;4142966;28;20515;-75
2022/11/11 08:24:20;;;;;;;29.05;18.90;;;;;;;11.22;72.75;95981.38;4142210;28;20061;-73
2022/11/11 08:26:42;;;;;;;32.00;18.88;;;;;;;11.35;72.56;95974.13;4144342;28;20049;-74
2022/11/11 08:28:44;;;;;;;27.08;18.92;;;;;;;11.34;71.61;95976.91;4142775;28;20049;-73
2022/11/11 08:30:47;;;;;;;31.63;19.27;;;;;;;11.36;72.04;95965.31;4143105;28;20140;-75
2022/11/11 08:33:04;;;;;;;27.00;17.08;;;;;;;11.36;71.63;95975.81;4143375;28;20104;-74
2022/11/11 08:35:26;;;;;;;27.85;18.50;;;;;;;11.42;71.52;95977.91;4141500;28;20072;-73
2022/11/11 08:37:28;;;;;;;27.10;18.17;;;;;;;11.48;71.43;95977.34;4143925;28;20104;-73
2022/11/11 08:39:30;;;;;;;25.20;16.48;;;;;;;11.48;71.05;95982.59;4142473;28;20050;-73
2022/11/11 08:41:31;;;;;;;25.58;17.83;;;;;;;11.36;71.63;95978.41;4143829;28;20077;-73
2022/11/11 08:43:33;;;;;;;33.33;20.38;;;;;;;11.42;71.87;95975.28;4135238;28;20050;-72
2022/11/11 08:45:38;;;;;;;23.15;16.17;;;;;;;11.50;71.26;95977.22;4130159;28;20104;-74
2022/11/11 08:47:43;;;;;;;27.55;17.15;;;;;;;11.57;70.71;95985.38;4133457;28;20227;-72
2022/11/11 08:49:44;;;;;;;26.13;18.00;;;;;;;11.65;70.50;95977.69;4139031;28;20133;-77
2022/11/11 08:51:46;;;;;;;22.63;16.88;;;;;;;11.76;70.38;95981.97;4144676;28;20053;-75
2022/11/11 08:53:50;;;;;;;27.50;16.55;;;;;;;11.71;70.01;95976.31;4141889;28;20054;-75
2022/11/11 08:55:52;;;;;;;23.65;15.80;;;;;;;11.67;69.69;95981.00;4144441;28;20524;-73
2022/11/11 08:58:03;;;;;;;24.27;16.40;;;;;;;11.73;69.94;95977.84;4145983;28;20290;-74
2022/11/11 09:00:06;;;;;;;22.08;14.27;;;;;;;11.61;69.46;95979.72;4146043;28;20097;-76
2022/11/11 09:02:11;;;;;;;22.15;14.43;;;;;;;11.70;69.59;95972.84;4145065;28;20092;-75
2022/11/11 09:04:13;;;;;;;20.88;14.48;;;;;;;11.83;69.90;95973.44;4147221;28;20140;-74
2022/11/11 09:06:34;;;;;;;21.08;14.93;;;;;;;11.98;69.09;95973.91;4146085;28;20045;-74
2022/11/11 09:08:36;;;;;;;16.42;12.48;;;;;;;11.98;68.76;95971.28;4145502;28;20073;-75
2022/11/11 09:10:38;;;;;;;19.98;14.10;;;;;;;11.97;68.62;95974.88;4144422;28;20046;-72
2022/11/11 09:12:40;;;;;;;17.75;13.30;;;;;;;12.04;68.55;95970.72;4129519;28;20086;-73
2022/11/11 09:14:41;;;;;;;16.88;12.65;;;;;;;12.09;68.34;95970.34;4144364;28;20129;-75
2022/11/11 09:16:43;;;;;;;19.33;13.10;;;;;;;12.13;68.35;95976.97;4144640;28;20129;-77
2022/11/11 09:18:45;;;;;;;21.08;13.45;;;;;;;12.12;68.30;95977.94;4147114;28;20046;-74
2022/11/11 09:20:47;;;;;;;16.95;12.98;;;;;;;12.11;68.75;95973.66;4141103;28;20064;-74
2022/11/11 09:22:49;;;;;;;20.80;12.82;;;;;;;12.18;68.43;95976.56;4147324;28;20062;-74
2022/11/11 09:24:51;;;;;;;18.10;12.48;;;;;;;12.14;68.04;95968.13;4147044;28;20077;-73
2022/11/11 09:26:52;;;;;;;17.92;12.23;;;;;;;12.17;68.09;95973.06;4145279;28;20562;-73
2022/11/11 09:28:54;;;;;;;17.92;12.30;;;;;;;12.18;67.94;95972.13;4145367;28;20065;-73
2022/11/11 09:31:00;;;;;;;16.90;12.07;;;;;;;12.22;67.72;95972.69;4144020;28;20042;-74
2022/11/11 09:33:22;;;;;;;16.23;11.25;;;;;;;12.17;67.12;95970.44;4122668;28;20142;-73
2022/11/11 09:35:24;;;;;;;19.23;11.93;;;;;;;12.14;66.52;95970.75;4143283;28;20419;-74
2022/11/11 09:37:26;;;;;;;15.82;10.55;;;;;;;12.08;66.59;95964.22;4145489;28;20045;-73
2022/11/11 09:39:28;;;;;;;16.90;10.60;;;;;;;12.09;65.74;95962.47;4146268;28;20053;-73
2022/11/11 09:41:35;;;;;;;14.00;10.18;;;;;;;12.08;65.73;95968.66;4146230;28;20054;-73
2022/11/11 09:43:56;;;;;;;13.10;10.20;;;;;;;12.01;66.09;95975.44;4144741;28;20089;-75
2022/11/11 09:46:16;;;;;;;14.05;10.65;;;;;;;11.94;65.94;95962.03;4145275;28;20436;-73
2022/11/11 09:48:48;;;;;;;12.68;10.05;;;;;;;11.93;66.50;95959.53;4145581;28;20137;-72
2022/11/11 09:50:53;;;;;;;18.13;12.90;;;;;;;11.71;66.75;95963.19;4144183;28;20085;-73
2022/11/11 09:53:10;;;;;;;23.63;15.23;;;;;;;11.65;67.33;95956.69;4140542;28;20054;-79
2022/11/11 09:55:26;;;;;;;19.73;15.15;;;;;;;11.47;67.72;95951.25;4141718;28;20548;-77
2022/11/11 09:57:48;;;;;;;18.35;13.38;;;;;;;11.64;67.49;95949.78;4161517;28;20164;-75
2022/11/11 09:59:53;;;;;;;16.58;11.88;;;;;;;11.68;67.09;95943.31;4161359;28;20622;-73
2022/11/11 10:01:56;;;;;;;15.75;11.82;;;;;;;11.66;66.92;95946.06;4140810;28;20771;-73
2022/11/11 10:04:24;;;;;;;14.95;12.13;;;;;;;11.28;67.96;95949.38;4146776;28;20049;-75
2022/11/11 10:06:30;;;;;;;16.10;11.80;;;;;;;11.48;67.54;95947.66;4135060;28;20133;-74
2022/11/11 10:08:36;;;;;;;14.82;10.77;;;;;;;11.56;67.13;95947.00;4138463;28;20136;-76
2022/11/11 10:10:46;;;;;;;16.08;12.30;;;;;;;11.63;66.65;95943.69;4144841;28;20049;-75
2022/11/11 10:12:55;;;;;;;16.13;10.95;;;;;;;11.72;66.14;95944.66;4145125;28;20088;-75
2022/11/11 10:15:00;;;;;;;16.75;12.10;;;;;;;11.75;66.11;95939.16;4131993;28;20102;-74
2022/11/11 10:17:07;;;;;;;14.82;10.98;;;;;;;11.90;65.85;95939.63;4144404;28;20444;-77
2022/11/11 10:19:29;;;;;;;14.38;11.13;;;;;;;12.09;65.20;95951.94;4146578;28;20077;-76
2022/11/11 10:21:43;;;;;;;14.23;10.85;;;;;;;12.05;65.13;95945.31;4117404;28;20070;-76
2022/11/11 10:24:11;;;;;;;15.57;11.27;;;;;;;11.73;66.42;95945.50;4145170;28;20122;-74
2022/11/11 10:26:23;;;;;;;13.75;10.70;;;;;;;11.66;66.34;95940.81;4144342;28;20104;-75
2022/11/11 10:28:28;;;;;;;13.20;9.98;;;;;;;11.79;66.07;95945.81;4145274;28;20791;-77
2022/11/11 10:30:32;;;;;;;15.18;11.27;;;;;;;11.96;65.73;95944.34;4128552;28;20054;-77
2022/11/11 10:32:34;;;;;;;12.95;10.75;;;;;;;12.11;65.29;95939.50;4145028;28;20239;-76
2022/11/11 10:34:36;;;;;;;14.35;10.20;;;;;;;12.07;64.98;95931.06;4144906;28;20452;-77
2022/11/11 10:36:44;;;;;;;13.93;10.20;;;;;;;12.13;64.81;95932.31;4128940;28;20138;-75
2022/11/11 10:38:59;;;;;;;15.90;9.60;;;;;;;12.20;64.35;95932.59;4127839;28;20243;-78
2022/11/11 10:41:14;;;;;;;14.77;9.52;;;;;;;12.28;64.07;95930.94;4128940;28;20505;-79
2022/11/11 10:43:25;;;;;;;14.32;9.95;;;;;;;12.34;63.50;95933.97;4138438;28;20160;-76
2022/11/11 10:45:49;;;;;;;13.05;9.73;;;;;;;12.20;63.49;95936.03;4145297;28;20041;-73
2022/11/11 10:48:05;;;;;;;13.18;9.38;;;;;;;11.97;63.50;95932.03;4143495;28;20445;-74